createdAt,value
2019-02-21T00:02:14.129Z,17.57
2019-02-21T00:04:42.992Z,14.85
2019-02-21T00:07:12.088Z,17.10
2019-02-21T00:09:40.967Z,15.95
2019-02-21T00:12:09.802Z,9.13
2019-02-21T00:14:38.669Z,10.03
2019-02-21T00:17:08.883Z,7.45
2019-02-21T00:19:38.209Z,10.80
2019-02-21T00:22:07.698Z,12.65
2019-02-21T00:24:36.817Z,10.98
2019-02-21T00:27:05.792Z,18.50
2019-02-21T00:29:35.022Z,9.43
2019-02-21T00:32:04.111Z,13.22
2019-02-21T00:34:33.092Z,10.20
2019-02-21T00:37:02.347Z,9.48
2019-02-21T00:39:31.823Z,7.67
2019-02-21T00:42:01.171Z,12.30
2019-02-21T00:44:30.368Z,15.43
2019-02-21T00:46:59.583Z,9.90
2019-02-21T00:49:27.971Z,9.88
2019-02-21T00:51:57.445Z,11.40
2019-02-21T00:54:26.804Z,14.03
2019-02-21T00:56:56.264Z,10.78
2019-02-21T00:59:25.557Z,8.53
2019-02-21T01:01:54.789Z,9.13
2019-02-21T01:04:23.642Z,10.32
2019-02-21T01:06:52.398Z,10.98
2019-02-21T01:09:21.249Z,12.43
2019-02-21T01:11:49.628Z,10.65
2019-02-21T01:14:18.473Z,8.85
2019-02-21T01:16:47.333Z,12.05
2019-02-21T01:19:16.180Z,10.58
2019-02-21T01:21:45.016Z,13.98
2019-02-21T01:24:13.792Z,7.55
2019-02-21T01:26:42.699Z,8.55
2019-02-21T01:29:11.477Z,10.93
2019-02-21T01:31:59.002Z,6.87
2019-02-21T01:34:27.344Z,13.88
2019-02-21T01:36:55.652Z,7.12
2019-02-21T01:39:24.152Z,9.75
2019-02-21T01:41:52.921Z,16.97
2019-02-21T01:44:21.711Z,8.70
2019-02-21T01:46:50.076Z,11.65
2019-02-21T01:49:18.853Z,9.40
2019-02-21T01:51:47.617Z,12.68
2019-02-21T01:54:16.396Z,10.23
2019-02-21T01:56:45.156Z,9.45
2019-02-21T01:59:13.999Z,10.88
2019-02-21T02:01:42.761Z,8.25
2019-02-21T02:04:11.611Z,8.73
2019-02-21T02:06:39.904Z,12.40
2019-02-21T02:09:12.232Z,7.47
2019-02-21T02:11:41.006Z,10.98
2019-02-21T02:14:09.336Z,13.78
2019-02-21T02:16:37.907Z,12.50
2019-02-21T02:19:06.768Z,15.95
2019-02-21T02:21:35.624Z,12.10
2019-02-21T02:24:04.545Z,7.35
2019-02-21T02:26:33.316Z,15.00
2019-02-21T02:29:02.223Z,10.03
2019-02-21T02:31:31.024Z,11.22
2019-02-21T02:33:59.821Z,10.08
2019-02-21T02:36:28.705Z,11.70
2019-02-21T02:38:57.024Z,10.90
2019-02-21T02:41:25.420Z,21.25
2019-02-21T02:43:53.748Z,9.30
2019-02-21T02:46:22.513Z,17.62
2019-02-21T02:48:51.373Z,12.75
2019-02-21T02:51:20.141Z,17.77
2019-02-21T02:53:48.932Z,12.45
2019-02-21T02:56:17.714Z,20.77
2019-02-21T02:58:46.514Z,15.58
2019-02-21T03:01:15.289Z,13.65
2019-02-21T03:03:44.090Z,13.32
2019-02-21T03:06:12.857Z,11.03
2019-02-21T03:08:41.267Z,13.62
2019-02-21T03:11:09.601Z,12.37
2019-02-21T03:13:38.468Z,15.25
2019-02-21T03:16:07.312Z,14.23
2019-02-21T03:18:35.877Z,17.30
2019-02-21T03:21:04.649Z,20.70
2019-02-21T03:23:33.689Z,11.10
2019-02-21T03:26:02.471Z,10.80
2019-02-21T03:28:31.252Z,12.63
2019-02-21T03:31:00.029Z,20.77
2019-02-21T03:33:28.838Z,12.47
2019-02-21T03:35:57.230Z,16.27
2019-02-21T03:38:25.561Z,16.27
2019-02-21T03:40:54.344Z,17.05
2019-02-21T03:43:23.291Z,16.77
2019-02-21T03:45:51.612Z,20.30
2019-02-21T03:48:19.932Z,17.48
2019-02-21T03:50:48.293Z,16.25
2019-02-21T03:53:17.089Z,14.95
2019-02-21T03:55:45.866Z,18.70
2019-02-21T03:58:14.896Z,18.03
2019-02-21T04:00:43.804Z,19.63
2019-02-21T04:03:12.650Z,17.30
2019-02-21T04:05:41.941Z,11.97
2019-02-21T04:08:10.798Z,24.33
2019-02-21T04:10:39.645Z,16.57
2019-02-21T04:13:08.429Z,19.67
2019-02-21T04:15:37.360Z,17.30
2019-02-21T04:18:05.689Z,20.67
2019-02-21T04:20:34.470Z,17.77
2019-02-21T04:23:03.246Z,11.57
2019-02-21T04:25:31.720Z,15.23
2019-02-21T04:28:00.499Z,16.03
2019-02-21T04:30:29.356Z,17.33
2019-02-21T04:32:58.128Z,21.97
2019-02-21T04:35:26.959Z,19.12
2019-02-21T04:37:55.264Z,18.97
2019-02-21T04:40:23.673Z,15.47
2019-02-21T04:42:52.453Z,17.95
2019-02-21T04:45:21.222Z,14.63
2019-02-21T04:47:49.552Z,24.55
2019-02-21T04:50:18.333Z,16.23
2019-02-21T04:52:47.121Z,23.10
2019-02-21T04:55:15.909Z,17.13
2019-02-21T04:57:44.714Z,14.50
2019-02-21T05:00:13.633Z,15.67
2019-02-21T05:02:42.441Z,20.03
2019-02-21T05:05:10.767Z,16.77
2019-02-21T05:07:39.525Z,23.17
2019-02-21T05:10:07.843Z,21.83
2019-02-21T05:12:36.692Z,21.03
2019-02-21T05:15:05.790Z,21.63
2019-02-21T05:17:34.588Z,18.60
2019-02-21T05:20:03.531Z,15.20
2019-02-21T05:22:32.365Z,22.30
2019-02-21T05:25:01.261Z,19.90
2019-02-21T05:27:35.589Z,23.40
2019-02-21T05:30:05.518Z,19.37
2019-02-21T05:32:56.183Z,17.50
2019-02-21T05:35:42.736Z,18.47
2019-02-21T05:38:42.741Z,18.17
2019-02-21T05:41:24.786Z,17.73
2019-02-21T05:44:02.304Z,19.80
2019-02-21T05:46:39.904Z,14.70
2019-02-21T05:49:26.790Z,23.23
2019-02-21T05:52:04.116Z,15.47
2019-02-21T05:54:45.197Z,18.20
2019-02-21T05:57:35.917Z,18.30
2019-02-21T06:00:31.603Z,20.73
2019-02-21T06:03:18.662Z,13.47
2019-02-21T06:06:12.400Z,19.87
2019-02-21T06:09:04.379Z,15.87
2019-02-21T06:11:49.544Z,15.23
2019-02-21T06:14:43.365Z,16.53
2019-02-21T06:17:22.756Z,16.83
2019-02-21T06:20:10.741Z,19.13
2019-02-21T06:22:58.597Z,26.73
2019-02-21T06:25:36.276Z,21.23
2019-02-21T06:28:10.093Z,16.30
2019-02-21T06:30:57.978Z,20.33
2019-02-21T06:33:28.247Z,12.25
2019-02-21T06:35:56.761Z,26.00
2019-02-21T06:38:25.542Z,195.07
2019-02-21T06:40:54.329Z,97.12
2019-02-21T06:43:22.657Z,42.50
2019-02-21T06:45:51.424Z,27.55
2019-02-21T06:48:19.756Z,22.15
2019-02-21T06:50:48.561Z,21.50
2019-02-21T06:53:17.414Z,20.07
2019-02-21T06:55:46.452Z,22.50
2019-02-21T06:58:15.232Z,19.17
2019-02-21T07:00:46.156Z,34.73
2019-02-21T07:03:16.103Z,24.25
2019-02-21T07:05:44.593Z,21.93
2019-02-21T07:08:13.370Z,21.53
2019-02-21T07:10:41.680Z,26.02
2019-02-21T07:13:10.460Z,19.10
2019-02-21T07:15:38.777Z,23.40
2019-02-21T07:18:07.544Z,22.87
2019-02-21T07:20:35.856Z,20.57
2019-02-21T07:23:04.793Z,18.27
2019-02-21T07:25:50.736Z,31.57
2019-02-21T07:28:19.705Z,18.50
2019-02-21T07:30:49.853Z,25.63
2019-02-21T07:33:27.786Z,23.23
2019-02-21T07:35:49.448Z,20.40
2019-02-21T07:38:18.584Z,27.63
2019-02-21T07:40:47.462Z,19.13
2019-02-21T07:43:15.801Z,18.83
2019-02-21T07:45:44.661Z,20.43
2019-02-21T07:48:13.436Z,17.27
2019-02-21T07:50:42.300Z,20.27
2019-02-21T07:53:11.107Z,21.73
2019-02-21T07:55:39.969Z,25.43
2019-02-21T07:58:08.752Z,25.70
2019-02-21T08:00:37.534Z,19.07
2019-02-21T08:03:09.025Z,28.97
2019-02-21T08:05:36.470Z,24.40
2019-02-21T08:08:05.425Z,34.10
2019-02-21T08:10:34.147Z,18.27
2019-02-21T08:13:03.427Z,21.53
2019-02-21T08:15:31.841Z,29.87
2019-02-21T08:18:00.892Z,25.73
2019-02-21T08:20:34.091Z,23.57
2019-02-21T08:23:02.935Z,22.73
2019-02-21T08:25:30.732Z,23.17
2019-02-21T08:27:59.769Z,30.17
2019-02-21T08:30:29.387Z,31.53
2019-02-21T08:33:06.021Z,39.90
2019-02-21T08:35:35.072Z,39.53
2019-02-21T08:38:03.916Z,23.20
2019-02-21T08:40:32.809Z,26.30
2019-02-21T08:43:03.975Z,17.20
2019-02-21T08:45:32.120Z,25.23
2019-02-21T08:48:00.977Z,23.80
2019-02-21T08:50:29.757Z,23.57
2019-02-21T08:53:00.883Z,24.03
2019-02-21T08:55:29.188Z,21.67
2019-02-21T08:57:57.977Z,19.80
2019-02-21T09:00:26.380Z,20.47
2019-02-21T09:02:55.156Z,19.40
2019-02-21T09:05:24.083Z,20.63
2019-02-21T09:07:52.900Z,20.43
2019-02-21T09:10:21.792Z,26.77
2019-02-21T09:12:53.545Z,22.90
2019-02-21T09:15:22.659Z,23.17
2019-02-21T09:17:53.913Z,22.23
2019-02-21T09:20:22.074Z,24.77
2019-02-21T09:22:50.853Z,29.00
2019-02-21T09:25:19.648Z,23.23
2019-02-21T09:27:48.417Z,16.17
2019-02-21T09:30:18.041Z,21.97
2019-02-21T09:32:46.948Z,25.33
2019-02-21T09:35:15.899Z,22.00
2019-02-21T09:37:44.657Z,24.03
2019-02-21T09:40:13.752Z,21.43
2019-02-21T09:42:42.689Z,19.53
2019-02-21T09:45:14.961Z,23.03
2019-02-21T09:47:44.255Z,21.10
2019-02-21T09:50:13.281Z,25.40
2019-02-21T09:52:42.073Z,30.43
2019-02-21T09:55:13.162Z,22.23
2019-02-21T09:57:41.951Z,26.10
2019-02-21T10:00:13.797Z,24.53
2019-02-21T10:02:42.657Z,24.77
2019-02-21T10:05:11.601Z,20.47
2019-02-21T10:07:40.591Z,22.50
2019-02-21T10:10:12.344Z,27.90
2019-02-21T10:12:41.284Z,28.00
2019-02-21T10:15:11.078Z,18.00
2019-02-21T10:17:39.861Z,22.77
2019-02-21T10:20:11.063Z,24.97
2019-02-21T10:22:39.993Z,22.87
2019-02-21T10:25:12.312Z,29.83
2019-02-21T10:27:41.188Z,23.87
2019-02-21T10:30:13.398Z,23.00
2019-02-21T10:32:42.415Z,24.40
2019-02-21T10:35:11.364Z,20.83
2019-02-21T10:37:40.397Z,28.80
2019-02-21T10:40:10.560Z,27.03
2019-02-21T10:42:39.424Z,23.50
2019-02-21T10:45:11.026Z,33.47
2019-02-21T10:47:39.880Z,26.47
2019-02-21T10:50:13.913Z,25.00
2019-02-21T10:52:42.285Z,29.87
2019-02-21T10:55:11.428Z,20.10
2019-02-21T10:57:39.752Z,22.53
2019-02-21T11:00:12.857Z,21.03
2019-02-21T11:02:41.737Z,22.37
2019-02-21T11:05:10.776Z,25.97
2019-02-21T11:07:39.569Z,32.47
2019-02-21T11:10:08.844Z,31.43
2019-02-21T11:12:37.702Z,20.23
2019-02-21T11:15:09.388Z,31.43
2019-02-21T11:17:38.169Z,23.43
2019-02-21T11:20:09.308Z,26.03
2019-02-21T11:22:37.644Z,30.50
2019-02-21T11:25:08.293Z,29.77
2019-02-21T11:27:37.154Z,27.10
2019-02-21T11:30:07.572Z,28.83
2019-02-21T11:32:36.470Z,24.23
2019-02-21T11:35:06.719Z,23.73
2019-02-21T11:37:42.732Z,30.70
2019-02-21T11:40:05.800Z,33.33
2019-02-21T11:42:34.708Z,26.33
2019-02-21T11:45:04.246Z,32.80
2019-02-21T11:47:33.286Z,33.77
2019-02-21T11:50:02.147Z,29.03
2019-02-21T11:52:30.942Z,30.60
2019-02-21T11:54:59.743Z,32.57
2019-02-21T11:57:28.545Z,26.77
2019-02-21T11:59:57.576Z,29.40
2019-02-21T12:02:26.369Z,28.50
2019-02-21T12:04:55.145Z,35.00
2019-02-21T12:07:23.577Z,31.60
2019-02-21T12:09:52.457Z,23.30
2019-02-21T12:12:21.306Z,34.60
2019-02-21T12:14:49.708Z,23.30
2019-02-21T12:17:18.039Z,27.47
2019-02-21T12:19:46.937Z,23.80
2019-02-21T12:22:15.716Z,23.57
2019-02-21T12:24:44.506Z,26.73
2019-02-21T12:27:12.893Z,25.53
2019-02-21T12:29:41.672Z,22.63
2019-02-21T12:32:10.467Z,22.67
2019-02-21T12:34:39.316Z,20.20
2019-02-21T12:37:08.189Z,23.50
2019-02-21T12:39:37.041Z,30.43
2019-02-21T12:42:06.028Z,23.57
2019-02-21T12:44:34.831Z,30.63
2019-02-21T12:47:03.870Z,23.83
2019-02-21T12:49:32.815Z,18.53
2019-02-21T12:52:01.612Z,23.23
2019-02-21T12:54:30.413Z,22.33
2019-02-21T12:56:59.289Z,29.47
2019-02-21T12:59:28.073Z,23.43
2019-02-21T13:01:57.009Z,29.20
2019-02-21T13:04:25.905Z,24.13
2019-02-21T13:06:54.714Z,23.50
2019-02-21T13:09:23.500Z,25.20
2019-02-21T13:11:51.868Z,26.83
2019-02-21T13:14:20.653Z,29.53
2019-02-21T13:16:49.436Z,27.47
2019-02-21T13:19:18.214Z,26.67
2019-02-21T13:21:47.062Z,29.93
2019-02-21T13:24:15.852Z,25.53
2019-02-21T13:26:44.794Z,25.00
2019-02-21T13:29:13.848Z,23.30
2019-02-21T13:31:42.633Z,33.23
2019-02-21T13:34:11.492Z,28.87
2019-02-21T13:36:39.808Z,28.53
2019-02-21T13:39:09.032Z,22.20
2019-02-21T13:41:38.105Z,29.37
2019-02-21T13:44:06.945Z,25.93
2019-02-21T13:46:38.712Z,25.03
2019-02-21T13:49:06.252Z,27.40
2019-02-21T13:51:35.129Z,25.87
2019-02-21T13:54:04.012Z,26.80
2019-02-21T13:56:32.860Z,27.33
2019-02-21T13:59:01.609Z,28.67
2019-02-21T14:01:30.464Z,25.23
2019-02-21T14:03:59.239Z,27.23
2019-02-21T14:06:27.541Z,31.03
2019-02-21T14:08:56.324Z,28.47
2019-02-21T14:11:25.155Z,22.07
2019-02-21T14:13:54.080Z,35.57
2019-02-21T14:16:22.932Z,23.03
2019-02-21T14:18:51.966Z,21.50
2019-02-21T14:21:20.764Z,30.40
2019-02-21T14:23:49.536Z,28.83
2019-02-21T14:26:18.331Z,24.23
2019-02-21T14:28:47.276Z,29.93
2019-02-21T14:31:16.053Z,27.43
2019-02-21T14:33:45.153Z,24.53
2019-02-21T14:36:16.821Z,22.47
2019-02-21T14:38:43.499Z,24.63
2019-02-21T14:41:12.285Z,26.93
2019-02-21T14:43:40.610Z,23.00
2019-02-21T14:46:09.391Z,23.23
2019-02-21T14:48:38.229Z,37.03
2019-02-21T14:51:07.201Z,28.93
2019-02-21T14:53:35.968Z,27.83
2019-02-21T14:56:04.765Z,28.03
2019-02-21T14:58:33.611Z,36.00
2019-02-21T15:01:02.396Z,34.83
2019-02-21T15:03:31.161Z,31.23
2019-02-21T15:05:59.477Z,35.50
2019-02-21T15:08:27.784Z,36.30
2019-02-21T15:10:56.907Z,35.03
2019-02-21T15:13:25.692Z,35.27
2019-02-21T15:15:54.752Z,35.27
2019-02-21T15:18:23.526Z,36.87
2019-02-21T15:20:51.949Z,34.97
2019-02-21T15:23:20.725Z,33.77
2019-02-21T15:25:49.569Z,30.63
2019-02-21T15:28:18.368Z,34.07
2019-02-21T15:30:47.157Z,38.23
2019-02-21T15:33:15.532Z,45.13
2019-02-21T15:35:44.404Z,45.80
2019-02-21T15:38:19.862Z,34.33
2019-02-21T15:40:43.483Z,47.53
2019-02-21T15:43:11.825Z,39.43
2019-02-21T15:45:40.604Z,31.63
2019-02-21T15:48:09.402Z,45.17
2019-02-21T15:50:38.213Z,43.73
2019-02-21T15:53:06.569Z,41.87
2019-02-21T15:55:35.635Z,48.67
2019-02-21T15:58:04.793Z,43.80
2019-02-21T16:00:33.952Z,37.80
2019-02-21T16:03:02.732Z,47.13
2019-02-21T16:05:31.108Z,42.00
2019-02-21T16:07:59.424Z,40.13
2019-02-21T16:10:27.928Z,36.60
2019-02-21T16:12:57.246Z,42.40
2019-02-21T16:15:26.500Z,35.77
2019-02-21T16:17:55.372Z,39.00
2019-02-21T16:20:24.244Z,39.20
2019-02-21T16:22:53.180Z,34.90
2019-02-21T16:25:22.317Z,35.20
2019-02-21T16:27:51.092Z,35.23
2019-02-21T16:30:22.039Z,33.43
2019-02-21T16:32:50.753Z,31.27
2019-02-21T16:35:19.664Z,36.83
2019-02-21T16:37:48.462Z,40.13
2019-02-21T16:40:19.192Z,41.07
2019-02-21T16:42:47.503Z,43.10
2019-02-21T16:45:15.872Z,39.33
2019-02-21T16:47:44.956Z,39.70
2019-02-21T16:50:13.964Z,44.37
2019-02-21T16:52:43.094Z,43.00
2019-02-21T16:55:15.329Z,49.37
2019-02-21T16:57:44.187Z,41.90
2019-02-21T17:00:16.651Z,33.60
2019-02-21T17:02:45.517Z,30.17
2019-02-21T17:05:15.101Z,40.80
2019-02-21T17:07:43.422Z,43.10
2019-02-21T17:10:12.488Z,42.53
2019-02-21T17:12:41.429Z,36.23
2019-02-21T17:15:10.249Z,36.73
2019-02-21T17:17:39.025Z,33.10
2019-02-21T17:20:09.656Z,39.23
2019-02-21T17:22:38.664Z,33.87
2019-02-21T17:25:08.611Z,39.50
2019-02-21T17:27:37.524Z,36.33
2019-02-21T17:30:07.330Z,31.03
2019-02-21T17:32:35.659Z,28.97
2019-02-21T17:35:04.702Z,31.03
2019-02-21T17:37:33.720Z,26.90
2019-02-21T17:40:02.587Z,33.00
2019-02-21T17:42:31.604Z,28.70
2019-02-21T17:45:00.381Z,28.23
2019-02-21T17:47:29.156Z,37.37
2019-02-21T17:49:57.929Z,35.70
2019-02-21T17:52:26.736Z,34.17
2019-02-21T17:54:55.749Z,32.00
2019-02-21T17:57:24.606Z,35.50
2019-02-21T17:59:53.466Z,32.00
2019-02-21T18:02:22.325Z,37.57
2019-02-21T18:04:51.100Z,33.17
2019-02-21T18:07:20.120Z,33.27
2019-02-21T18:09:48.896Z,30.50
2019-02-21T18:12:17.809Z,30.63
2019-02-21T18:14:46.656Z,35.83
2019-02-21T18:17:14.968Z,36.13
2019-02-21T18:19:43.760Z,41.40
2019-02-21T18:22:12.538Z,30.17
2019-02-21T18:24:41.339Z,31.93
2019-02-21T18:27:10.184Z,39.90
2019-02-21T18:29:38.968Z,32.30
2019-02-21T18:32:07.760Z,50.17
2019-02-21T18:34:36.144Z,30.47
2019-02-21T18:37:04.993Z,43.20
2019-02-21T18:39:33.780Z,35.20
2019-02-21T18:42:02.641Z,29.23
2019-02-21T18:44:31.494Z,37.23
2019-02-21T18:47:00.264Z,33.70
2019-02-21T18:49:29.197Z,34.37
2019-02-21T18:51:57.969Z,42.67
2019-02-21T18:54:26.797Z,38.03
2019-02-21T18:56:55.583Z,34.60
2019-02-21T18:59:31.372Z,35.87
2019-02-21T19:01:54.941Z,31.80
2019-02-21T19:04:23.720Z,38.33
2019-02-21T19:06:52.581Z,33.93
2019-02-21T19:09:21.360Z,32.53
2019-02-21T19:11:50.209Z,35.40
2019-02-21T19:14:19.086Z,26.83
2019-02-21T19:16:47.857Z,34.77
2019-02-21T19:19:16.699Z,40.03
2019-02-21T19:21:45.460Z,38.30
2019-02-21T19:24:14.415Z,28.57
2019-02-21T19:26:43.229Z,32.33
2019-02-21T19:29:12.080Z,27.07
2019-02-21T19:31:41.007Z,35.17
2019-02-21T19:34:10.084Z,33.07
2019-02-21T19:36:38.952Z,34.30
2019-02-21T19:39:08.480Z,57.47
2019-02-21T19:41:36.816Z,42.43
2019-02-21T19:44:08.840Z,48.73
2019-02-21T19:46:36.273Z,39.90
2019-02-21T19:49:05.197Z,30.63
2019-02-21T19:51:34.111Z,33.83
2019-02-21T19:54:03.097Z,29.70
2019-02-21T19:56:32.043Z,33.23
2019-02-21T19:59:00.885Z,34.30
2019-02-21T20:01:29.676Z,32.47
2019-02-21T20:03:58.536Z,43.63
2019-02-21T20:06:27.405Z,37.77
2019-02-21T20:08:56.245Z,40.63
2019-02-21T20:11:25.185Z,39.57
2019-02-21T20:13:54.046Z,32.40
2019-02-21T20:16:22.996Z,43.13
2019-02-21T20:18:51.849Z,40.80
2019-02-21T20:21:20.653Z,41.17
2019-02-21T20:23:49.514Z,37.70
2019-02-21T20:26:18.695Z,34.37
2019-02-21T20:28:47.617Z,43.07
2019-02-21T20:31:16.396Z,40.23
2019-02-21T20:33:45.183Z,36.43
2019-02-21T20:36:14.020Z,37.90
2019-02-21T20:38:42.427Z,44.53
2019-02-21T20:41:11.317Z,31.20
2019-02-21T20:43:40.132Z,39.67
2019-02-21T20:46:09.048Z,39.87
2019-02-21T20:48:38.132Z,57.03
2019-02-21T20:51:07.057Z,33.27
2019-02-21T20:53:35.998Z,35.53
2019-02-21T20:56:06.166Z,31.93
2019-02-21T20:58:35.277Z,30.47
2019-02-21T21:01:05.646Z,34.37
2019-02-21T21:03:34.436Z,38.70
2019-02-21T21:06:03.407Z,43.77
2019-02-21T21:08:42.511Z,34.73
2019-02-21T21:11:02.757Z,39.20
2019-02-21T21:13:31.668Z,30.57
2019-02-21T21:16:00.528Z,50.87
2019-02-21T21:18:29.310Z,79.80
2019-02-21T21:20:58.089Z,133.50
2019-02-21T21:23:26.879Z,43.67
2019-02-21T21:25:55.658Z,33.80
2019-02-21T21:28:24.444Z,32.87
2019-02-21T21:30:53.300Z,34.03
2019-02-21T21:33:22.177Z,29.87
2019-02-21T21:35:51.044Z,34.33
2019-02-21T21:38:24.111Z,31.33
2019-02-21T21:40:50.415Z,35.97
2019-02-21T21:43:20.128Z,35.07
2019-02-21T21:45:48.935Z,24.50
2019-02-21T21:48:17.875Z,28.67
2019-02-21T21:50:46.736Z,28.17
2019-02-21T21:53:15.523Z,32.03
2019-02-21T21:55:44.435Z,26.33
2019-02-21T21:58:13.304Z,34.20
2019-02-21T22:00:42.259Z,29.97
2019-02-21T22:03:11.084Z,33.30
2019-02-21T22:05:39.941Z,27.43
2019-02-21T22:08:08.747Z,30.77
2019-02-21T22:10:37.664Z,26.23
2019-02-21T22:13:06.448Z,37.60
2019-02-21T22:15:35.252Z,29.67
2019-02-21T22:18:04.257Z,23.60
2019-02-21T22:20:33.184Z,27.03
2019-02-21T22:23:02.358Z,32.27
2019-02-21T22:25:31.289Z,26.97
2019-02-21T22:28:00.242Z,33.97
2019-02-21T22:30:29.112Z,32.10
2019-02-21T22:32:57.932Z,30.90
2019-02-21T22:35:26.824Z,35.90
2019-02-21T22:37:55.694Z,28.83
2019-02-21T22:40:24.550Z,29.47
2019-02-21T22:42:53.017Z,37.47
2019-02-21T22:45:21.908Z,34.90
2019-02-21T22:47:51.362Z,40.90
2019-02-21T22:50:20.306Z,42.10
2019-02-21T22:52:49.229Z,42.33
2019-02-21T22:55:18.408Z,58.07
2019-02-21T22:57:47.218Z,50.53
2019-02-21T23:00:47.988Z,53.83
2019-02-21T23:03:17.594Z,42.97
2019-02-21T23:06:26.566Z,35.23
2019-02-21T23:08:55.444Z,38.13
2019-02-21T23:11:24.392Z,42.80
2019-02-21T23:13:54.596Z,44.53
2019-02-21T23:16:23.896Z,37.77
2019-02-21T23:18:52.880Z,44.73
2019-02-21T23:21:21.803Z,49.47
2019-02-21T23:23:51.678Z,51.43
2019-02-21T23:26:20.542Z,56.03
2019-02-21T23:28:49.476Z,61.40
2019-02-21T23:31:18.376Z,50.43
2019-02-21T23:33:50.974Z,53.20
2019-02-21T23:36:19.858Z,64.10
2019-02-21T23:38:50.008Z,52.57
2019-02-21T23:41:19.002Z,58.37
2019-02-21T23:43:47.451Z,48.27
2019-02-21T23:46:16.368Z,47.47
2019-02-21T23:48:45.141Z,52.03
2019-02-21T23:51:13.949Z,58.33
2019-02-21T23:53:42.732Z,56.03
2019-02-21T23:56:11.141Z,67.07
2019-02-21T23:58:41.433Z,60.33
